UUWW/VKO METAR and TAF weather

Enter ICAO airport designator
Station Type Date Time Source
UUWW METAR 2019/04/25 15:30 UTC NOAA

UUWW 251530Z 34003MPS CAVOK 22/02 Q1021 R24/000070 NOSIG


Station Type Date Time Source
UUWW Decoded METAR 2019/04/25 15:30 UTC NOAA

Moscow / Vnukovo , Russia (UUWW) 55-39N 037-16E
Apr 25, 2019 - 11:30 AM EDT / 2019.04.25 1530 UTC
Wind: from the NNW (340 degrees) at 7 MPH (6 KT):0
Visibility: greater than 7 mile(s):0
Temperature: 71 F (22 C)
Dew Point: 35 F (2 C)
Relative Humidity: 26%
Pressure (altimeter): 30.15 in. Hg (1021 hPa)
ob: UUWW 251530Z 34003MPS CAVOK 22/02 Q1021 R24/000070 NOSIG
cycle: 15

Station Type Date Time Source
UUWW TAF 2019/04/25 15:21 UTC NOAA

TAF UUWW 251352Z 2515/2615 02003MPS CAVOK TX23/2515Z TN10/2603Z

Example: see airport list